Time;durP1;ratioP1;P1;durP2;ratioP2;P2;SDS_P1;SDS_P2;PMS_P1;PMS_P2;Temp;Humidity;BMP_temperature;BMP_pressure;BME280_temperature;BME280_humidity;BME280_pressure;Samples;Min_cycle;Max_cycle;Signal;HPM_P1;HPM_P2
2023/10/05 00:03:46;;;;;;;9.32;0.80;;;;;;;10.26;57.05;101865.25;4969967;28;20034;-76
2023/10/05 00:06:17;;;;;;;19.52;1.15;;;;;;;10.40;56.59;101852.75;4968967;28;20046;-75
2023/10/05 00:08:49;;;;;;;9.30;1.20;;;;;;;10.26;57.08;101852.19;4967354;28;20035;-75
2023/10/05 00:11:29;;;;;;;4.72;0.82;;;;;;;10.09;57.74;101861.28;4967343;28;20479;-75
2023/10/05 00:13:59;;;;;;;5.55;0.68;;;;;;;10.44;56.56;101854.38;4971836;28;20061;-74
2023/10/05 00:16:38;;;;;;;4.88;0.70;;;;;;;10.25;57.22;101864.41;4963263;28;20121;-75
2023/10/05 00:19:11;;;;;;;3.80;0.65;;;;;;;9.99;58.05;101865.84;4962585;28;20038;-74
2023/10/05 00:21:51;;;;;;;4.53;0.77;;;;;;;10.03;57.76;101856.19;4971880;28;20469;-75
2023/10/05 00:24:37;;;;;;;7.95;1.17;;;;;;;10.34;56.92;101855.50;4970128;28;20214;-74
2023/10/05 00:27:08;;;;;;;5.40;0.90;;;;;;;9.83;58.75;101855.75;4968512;28;20760;-75
2023/10/05 00:29:41;;;;;;;5.25;0.80;;;;;;;9.90;58.45;101853.00;4995793;28;20042;-75
2023/10/05 00:32:34;;;;;;;3.40;0.50;;;;;;;10.37;56.81;101852.78;4972431;28;20042;-74
2023/10/05 00:35:20;;;;;;;6.68;0.80;;;;;;;10.32;57.38;101859.88;4966382;28;20050;-74
2023/10/05 00:37:48;;;;;;;7.07;0.93;;;;;;;9.82;58.83;101856.66;4964778;28;20039;-74
2023/10/05 00:40:27;;;;;;;7.03;0.50;;;;;;;10.12;57.95;101855.13;4988353;28;20068;-74
2023/10/05 00:42:53;;;;;;;4.78;1.10;;;;;;;10.20;57.54;101851.44;4957054;28;20069;-73
2023/10/05 00:45:31;;;;;;;4.88;0.80;;;;;;;10.46;56.90;101846.50;4963073;28;20073;-74
2023/10/05 00:48:09;;;;;;;6.22;0.73;;;;;;;10.28;57.52;101846.06;4972895;28;20093;-74
2023/10/05 00:50:35;;;;;;;5.43;0.95;;;;;;;10.13;58.07;101839.41;4965561;28;20429;-75
2023/10/05 00:53:03;;;;;;;4.00;0.50;;;;;;;10.34;57.33;101852.88;4975464;28;20045;-74
2023/10/05 00:55:29;;;;;;;4.82;1.25;;;;;;;10.36;57.00;101851.94;4957453;28;20049;-75
2023/10/05 00:57:55;;;;;;;3.92;0.80;;;;;;;10.28;57.39;101850.41;4984735;28;20437;-74
2023/10/05 01:00:40;;;;;;;7.72;0.70;;;;;;;9.72;58.92;101849.00;4964948;28;20487;-75
2023/10/05 01:03:33;;;;;;;3.13;0.77;;;;;;;10.05;58.24;101843.94;4964643;28;20056;-75
2023/10/05 01:09:04;;;;;;;4.30;1.08;;;;;;;10.36;57.57;101835.41;4969033;28;20056;-74
2023/10/05 01:11:52;;;;;;;5.30;0.80;;;;;;;10.40;57.30;101834.44;4972364;28;20049;-75
2023/10/05 01:14:18;;;;;;;13.73;0.50;;;;;;;10.46;57.26;101836.91;4980101;28;20136;-74
2023/10/05 01:16:45;;;;;;;6.90;0.68;;;;;;;10.43;57.05;101836.97;4971544;28;20410;-74
2023/10/05 01:19:11;;;;;;;2.17;0.50;;;;;;;10.07;58.68;101836.94;4964098;28;20062;-74
2023/10/05 01:21:37;;;;;;;5.10;0.90;;;;;;;10.04;58.44;101834.41;4965192;28;20042;-73
2023/10/05 01:24:04;;;;;;;4.35;0.52;;;;;;;9.96;58.92;101837.16;4971536;28;20047;-74
2023/10/05 01:26:32;;;;;;;6.22;1.15;;;;;;;10.02;58.81;101829.22;4954944;28;20033;-75
2023/10/05 01:28:58;;;;;;;7.78;0.73;;;;;;;10.07;59.01;101831.72;4996633;28;20050;-74
2023/10/05 01:31:24;;;;;;;5.93;1.00;;;;;;;10.01;58.53;101826.63;4978610;28;20027;-74
2023/10/05 01:33:50;;;;;;;3.45;0.77;;;;;;;10.29;58.29;101818.16;4964512;28;20034;-75
2023/10/05 01:36:17;;;;;;;5.65;1.23;;;;;;;10.43;57.94;101816.06;4980936;28;20039;-76
2023/10/05 01:38:44;;;;;;;6.63;0.47;;;;;;;9.98;58.69;101814.50;4977287;28;20581;-75
2023/10/05 01:41:10;;;;;;;8.57;1.00;;;;;;;10.28;57.84;101811.22;4966334;28;20131;-75
2023/10/05 01:43:42;;;;;;;5.30;0.63;;;;;;;10.15;58.09;101816.75;4969458;28;20564;-75
2023/10/05 01:46:10;;;;;;;2.25;0.43;;;;;;;10.07;59.05;101813.44;4981249;28;20043;-75
2023/10/05 01:48:37;;;;;;;3.35;1.17;;;;;;;10.10;58.77;101825.56;4936269;28;20093;-75
2023/10/05 01:51:10;;;;;;;6.10;0.80;;;;;;;10.18;58.45;101824.50;4952798;28;20140;-77
2023/10/05 01:53:36;;;;;;;6.40;0.93;;;;;;;10.02;58.70;101830.97;4971953;28;20103;-75
2023/10/05 01:56:03;;;;;;;3.80;0.75;;;;;;;10.18;58.58;101821.88;4965561;28;20208;-76
2023/10/05 01:58:31;;;;;;;8.18;0.85;;;;;;;9.56;60.47;101827.53;4973402;28;20531;-74
2023/10/05 02:00:56;;;;;;;6.63;0.93;;;;;;;10.19;58.74;101828.84;4950450;28;20056;-74
2023/10/05 02:03:25;;;;;;;5.00;0.88;;;;;;;9.78;59.73;101817.50;4971101;28;20035;-76
2023/10/05 02:05:56;;;;;;;2.88;0.65;;;;;;;10.12;59.13;101824.63;4972148;28;20112;-74
2023/10/05 02:08:22;;;;;;;3.80;0.87;;;;;;;10.25;58.50;101821.75;4978243;28;20031;-76
2023/10/05 02:10:48;;;;;;;9.73;1.10;;;;;;;9.97;59.44;101827.59;4948738;28;20047;-76
2023/10/05 02:13:14;;;;;;;8.63;1.27;;;;;;;10.36;58.29;101819.72;4950574;28;20035;-74
2023/10/05 02:15:40;;;;;;;1.52;0.40;;;;;;;10.60;57.71;101818.28;4960021;28;20530;-73
2023/10/05 02:18:22;;;;;;;7.57;1.23;;;;;;;10.15;58.71;101816.75;4965714;28;20517;-75
2023/10/05 02:20:51;;;;;;;7.25;1.23;;;;;;;10.45;58.08;101808.19;4951761;28;20377;-76
2023/10/05 02:23:26;;;;;;;7.88;1.02;;;;;;;10.44;57.86;101802.13;4968205;28;20102;-74
2023/10/05 02:25:56;;;;;;;7.00;1.13;;;;;;;10.63;57.45;101808.59;4949097;28;20054;-74
2023/10/05 02:28:25;;;;;;;7.45;0.98;;;;;;;10.25;58.92;101804.31;4980527;28;20045;-74
2023/10/05 02:30:53;;;;;;;7.45;1.15;;;;;;;10.45;58.21;101798.59;4998370;28;20042;-76
2023/10/05 02:33:23;;;;;;;4.05;0.73;;;;;;;10.50;57.82;101806.31;4967098;28;20252;-74
2023/10/05 02:35:50;;;;;;;4.50;1.00;;;;;;;10.58;57.74;101813.06;4979904;28;20058;-74
2023/10/05 02:38:19;;;;;;;5.72;1.02;;;;;;;10.43;58.36;101808.22;4999153;28;20442;-74
2023/10/05 02:40:54;;;;;;;4.68;0.90;;;;;;;10.18;59.23;101800.97;4969013;28;20138;-74
2023/10/05 02:43:27;;;;;;;6.88;1.27;;;;;;;10.37;58.86;101798.78;4955336;28;20041;-75
2023/10/05 02:46:08;;;;;;;4.15;1.00;;;;;;;10.45;58.41;101793.38;4968212;28;20491;-75
2023/10/05 02:48:35;;;;;;;4.45;0.43;;;;;;;10.31;58.86;101787.63;4976369;28;20046;-74
2023/10/05 02:51:05;;;;;;;4.55;0.95;;;;;;;10.37;58.75;101795.31;4953629;28;20067;-74
2023/10/05 02:53:40;;;;;;;5.63;1.20;;;;;;;10.31;58.72;101798.94;4967213;28;20030;-74
2023/10/05 02:56:27;;;;;;;3.85;0.77;;;;;;;10.50;58.68;101791.50;4977622;28;20034;-75
2023/10/05 02:58:55;;;;;;;3.97;0.60;;;;;;;10.71;57.86;101794.47;4955176;28;20036;-74
2023/10/05 03:01:24;;;;;;;9.65;0.75;;;;;;;10.63;58.10;101787.66;4970875;28;20598;-74
2023/10/05 03:03:55;;;;;;;6.43;0.95;;;;;;;10.66;57.99;101786.75;4981499;28;20035;-75
2023/10/05 03:06:22;;;;;;;6.60;0.93;;;;;;;10.35;59.00;101782.28;4982489;28;20019;-74
2023/10/05 03:08:49;;;;;;;8.75;1.63;;;;;;;10.28;58.76;101783.34;4981780;28;20041;-74
2023/10/05 03:11:18;;;;;;;8.63;0.85;;;;;;;10.43;58.39;101787.31;4963401;28;20026;-76
2023/10/05 03:13:46;;;;;;;8.20;0.70;;;;;;;10.30;58.93;101780.69;4969877;28;20053;-75
2023/10/05 03:16:12;;;;;;;4.30;1.08;;;;;;;10.36;58.48;101791.00;4956306;28;20134;-74
2023/10/05 03:18:43;;;;;;;5.07;0.68;;;;;;;10.13;59.32;101771.50;4968754;28;20030;-76
2023/10/05 03:21:13;;;;;;;6.13;1.08;;;;;;;10.13;59.20;101768.88;4996992;28;20080;-74
2023/10/05 03:23:41;;;;;;;6.68;0.90;;;;;;;10.16;59.17;101754.88;4965866;28;20625;-77
2023/10/05 03:26:13;;;;;;;10.95;0.90;;;;;;;10.26;58.96;101771.19;4953572;28;20046;-75
2023/10/05 03:28:41;;;;;;;;;;;;;;;10.36;58.59;101767.47;4971377;28;20031;-76
2023/10/05 03:31:24;;;;;;;9.25;0.77;;;;;;;10.11;59.01;101768.06;4999904;28;19980;-73
2023/10/05 03:33:52;;;;;;;7.55;0.68;;;;;;;10.09;59.63;101764.63;4965681;28;20121;-76
2023/10/05 03:36:18;;;;;;;4.40;0.70;;;;;;;10.03;59.60;101777.81;4957270;28;20045;-75
2023/10/05 03:38:44;;;;;;;3.92;0.80;;;;;;;10.12;59.58;101774.13;4966728;28;20037;-76
2023/10/05 03:41:15;;;;;;;8.27;0.63;;;;;;;10.12;59.60;101785.44;4953637;28;20026;-76
2023/10/05 03:43:43;;;;;;;6.32;0.65;;;;;;;10.12;59.81;101781.97;4943328;28;20026;-76
2023/10/05 03:46:09;;;;;;;10.57;0.80;;;;;;;10.25;59.69;101779.94;4969915;28;20022;-76
2023/10/05 03:48:38;;;;;;;7.05;1.58;;;;;;;10.55;58.53;101776.56;4965624;28;20407;-77
2023/10/05 03:51:18;;;;;;;3.75;0.57;;;;;;;10.78;57.67;101783.81;4968954;28;20054;-77
2023/10/05 03:53:51;;;;;;;11.80;1.08;;;;;;;10.42;58.76;101772.53;4999159;28;20069;-75
2023/10/05 03:56:23;;;;;;;3.25;0.45;;;;;;;10.42;58.90;101772.53;4973875;28;20130;-75
2023/10/05 03:58:52;;;;;;;5.85;0.85;;;;;;;10.61;58.41;101784.22;4955546;28;20034;-73
2023/10/05 04:01:18;;;;;;;17.35;1.48;;;;;;;10.67;58.08;101793.69;4954014;28;20058;-76
2023/10/05 04:03:48;;;;;;;6.88;0.68;;;;;;;10.88;57.33;101787.06;4949139;28;20089;-74
2023/10/05 04:06:20;;;;;;;9.73;0.85;;;;;;;10.43;59.03;101789.94;4973515;28;20011;-75
2023/10/05 04:08:48;;;;;;;7.60;1.02;;;;;;;10.62;58.46;101791.19;4965975;28;20030;-75
2023/10/05 04:11:15;;;;;;;7.90;0.65;;;;;;;10.76;58.13;101789.97;5003986;28;20066;-75
2023/10/05 04:13:40;;;;;;;13.15;1.05;;;;;;;10.38;59.53;101782.22;5002415;28;20034;-74
2023/10/05 04:16:11;;;;;;;10.18;1.02;;;;;;;10.66;58.80;101784.16;4973746;28;20523;-75
2023/10/05 04:18:38;;;;;;;12.88;2.15;;;;;;;10.89;57.98;101794.03;4972400;28;20125;-75
2023/10/05 04:21:04;;;;;;;3.58;0.70;;;;;;;11.01;57.99;101793.66;4985107;28;20038;-75
2023/10/05 04:23:30;;;;;;;7.43;1.30;;;;;;;11.03;57.94;101797.09;4969164;28;20038;-75
2023/10/05 04:25:57;;;;;;;4.07;0.52;;;;;;;11.03;57.76;101793.66;5002973;28;20060;-77
2023/10/05 04:28:35;;;;;;;8.02;0.90;;;;;;;10.70;58.78;101792.75;5001585;28;20046;-74
2023/10/05 04:31:01;;;;;;;17.02;1.27;;;;;;;10.70;59.05;101795.38;4959071;28;20175;-75
2023/10/05 04:33:27;;;;;;;5.55;0.77;;;;;;;10.35;59.79;101786.66;4958983;28;20035;-76
2023/10/05 04:35:53;;;;;;;6.63;0.80;;;;;;;10.73;58.39;101787.47;5000118;28;20273;-75
2023/10/05 04:38:25;;;;;;;9.88;0.90;;;;;;;10.81;58.19;101790.72;4971335;28;20025;-74
2023/10/05 04:40:51;;;;;;;6.57;1.00;;;;;;;10.01;60.16;101777.00;4975187;28;20121;-76
2023/10/05 04:43:19;;;;;;;5.85;0.95;;;;;;;10.76;58.30;101782.97;4953161;28;20483;-75
2023/10/05 04:45:46;;;;;;;11.15;1.05;;;;;;;10.48;59.07;101782.84;4972061;28;20046;-76
2023/10/05 04:48:12;;;;;;;10.13;1.23;;;;;;;10.40;59.51;101780.41;4973693;28;20042;-76
2023/10/05 04:50:41;;;;;;;6.95;0.80;;;;;;;10.67;58.84;101783.22;4977297;28;20038;-75
2023/10/05 04:53:09;;;;;;;4.75;0.57;;;;;;;10.60;59.06;101776.44;4973158;28;20037;-73
2023/10/05 04:55:42;;;;;;;6.72;0.90;;;;;;;11.20;57.24;101778.34;4954805;28;20117;-76
2023/10/05 04:58:20;;;;;;;8.23;1.35;;;;;;;10.92;58.09;101788.69;4970476;28;20041;-75
2023/10/05 05:06:00;;;;;;;7.57;1.35;;;;;;;11.37;57.67;101788.31;4963038;28;20049;-75
2023/10/05 05:08:26;;;;;;;8.80;0.98;;;;;;;11.21;58.57;101782.66;4976383;28;20035;-76
2023/10/05 05:10:52;;;;;;;8.50;1.10;;;;;;;10.98;59.41;101782.47;4981887;28;20054;-76
2023/10/05 05:13:20;;;;;;;10.77;1.27;;;;;;;10.77;59.65;101792.56;4968113;28;20369;-76
2023/10/05 05:15:46;;;;;;;10.20;1.25;;;;;;;10.62;61.14;101780.72;4969659;28;20106;-76
2023/10/05 05:18:15;;;;;;;6.80;1.40;;;;;;;10.56;61.22;101782.66;4972229;28;20129;-75
2023/10/05 05:20:47;;;;;;;14.02;1.27;;;;;;;10.87;60.25;101784.50;4997401;28;20051;-74
2023/10/05 05:23:13;;;;;;;12.98;1.30;;;;;;;10.97;59.94;101779.00;4967125;28;20162;-75
2023/10/05 05:25:39;;;;;;;5.75;1.50;;;;;;;10.62;60.73;101775.50;4976731;28;20969;-75
2023/10/05 05:28:05;;;;;;;15.38;2.90;;;;;;;10.47;61.88;101773.28;4972155;28;20494;-74
2023/10/05 05:30:36;;;;;;;9.05;1.10;;;;;;;10.77;60.71;101770.75;4972407;28;20069;-75
2023/10/05 05:33:09;;;;;;;14.35;0.82;;;;;;;10.69;60.81;101775.34;4967516;28;20041;-74
2023/10/05 05:35:36;;;;;;;11.82;1.23;;;;;;;10.98;60.06;101778.06;4998721;28;20311;-75
2023/10/05 05:38:02;;;;;;;11.05;1.38;;;;;;;10.59;61.42;101775.59;4969998;28;20109;-75
2023/10/05 05:40:29;;;;;;;12.48;1.85;;;;;;;11.01;60.15;101772.75;4971791;28;20680;-73
2023/10/05 05:42:56;;;;;;;10.40;1.90;;;;;;;11.20;59.48;101786.19;4967829;28;20030;-74
2023/10/05 05:45:22;;;;;;;6.90;1.08;;;;;;;11.05;60.22;101790.09;4969295;28;20580;-74
2023/10/05 05:47:47;;;;;;;10.85;1.15;;;;;;;10.94;60.61;101797.38;4969241;28;20039;-76
2023/10/05 05:50:17;;;;;;;10.55;2.03;;;;;;;10.96;60.24;101789.47;4961761;28;20509;-75
2023/10/05 05:52:47;;;;;;;13.95;2.03;;;;;;;11.35;59.71;101791.88;4972801;28;20042;-73
2023/10/05 05:55:13;;;;;;;15.05;1.48;;;;;;;10.64;62.33;101789.41;4965388;28;20058;-75
2023/10/05 05:57:40;;;;;;;11.20;1.38;;;;;;;10.96;61.57;101798.19;4970311;28;20099;-75
2023/10/05 06:00:17;;;;;;;14.57;2.35;;;;;;;10.72;62.22;101802.25;4951391;28;20126;-74
2023/10/05 06:02:43;;;;;;;7.68;0.80;;;;;;;10.53;63.14;101803.66;4967249;28;20094;-75
2023/10/05 06:05:12;;;;;;;10.80;1.85;;;;;;;10.87;62.24;101814.13;4970967;28;20082;-75
2023/10/05 06:07:40;;;;;;;6.45;1.05;;;;;;;10.76;62.53;101808.28;4966955;28;20066;-74
2023/10/05 06:10:13;;;;;;;10.73;1.63;;;;;;;10.55;63.77;101821.00;4955528;28;20562;-74
2023/10/05 06:12:42;;;;;;;9.88;1.27;;;;;;;10.55;63.90;101836.69;4968101;28;20301;-75
2023/10/05 06:15:15;;;;;;;12.05;1.77;;;;;;;10.61;64.06;101846.97;4965340;28;20564;-75
2023/10/05 06:17:41;;;;;;;10.40;1.10;;;;;;;10.94;62.46;101849.69;4979122;28;20030;-74
2023/10/05 06:20:13;;;;;;;5.82;1.58;;;;;;;10.97;62.43;101857.47;4956507;28;20281;-75
2023/10/05 06:22:41;;;;;;;10.13;1.60;;;;;;;10.92;63.05;101846.25;4999075;28;20197;-74
2023/10/05 06:25:09;;;;;;;10.90;1.77;;;;;;;10.94;63.03;101860.13;4964684;28;20073;-74
2023/10/05 06:27:36;;;;;;;10.25;1.00;;;;;;;11.22;62.31;101869.91;4952264;28;20121;-74
2023/10/05 06:30:12;;;;;;;7.43;1.90;;;;;;;11.19;62.12;101873.44;4954402;28;20568;-74
2023/10/05 06:32:38;;;;;;;10.80;1.38;;;;;;;11.01;62.60;101877.38;4959675;28;20107;-75
2023/10/05 06:35:11;;;;;;;7.18;1.77;;;;;;;11.11;62.43;101879.78;4977394;28;20054;-75
2023/10/05 06:37:38;;;;;;;14.20;2.38;;;;;;;11.29;62.06;101874.06;4993331;28;20095;-75
2023/10/05 06:40:13;;;;;;;6.95;1.05;;;;;;;10.87;63.54;101876.03;4935343;28;20089;-77
2023/10/05 06:42:41;;;;;;;3.03;0.75;;;;;;;11.29;63.00;101876.66;4973679;28;20035;-75
2023/10/05 06:45:11;;;;;;;7.78;1.52;;;;;;;11.40;62.51;101885.09;4954492;28;20054;-76
2023/10/05 06:47:37;;;;;;;6.22;1.83;;;;;;;10.89;63.76;101882.94;4977639;28;20030;-77
2023/10/05 06:50:10;;;;;;;6.25;1.13;;;;;;;11.39;62.71;101891.22;4967003;28;20038;-75
2023/10/05 06:52:42;;;;;;;6.65;0.63;;;;;;;11.19;63.44;101883.03;4986851;28;20042;-75
2023/10/05 06:55:12;;;;;;;13.15;1.60;;;;;;;11.01;63.99;101887.84;4984926;28;20058;-75
2023/10/05 06:57:39;;;;;;;11.55;1.77;;;;;;;10.95;63.95;101885.41;4973231;28;20118;-77
2023/10/05 07:00:16;;;;;;;7.47;1.73;;;;;;;11.51;62.68;101889.16;4982470;28;20077;-77
2023/10/05 07:02:41;;;;;;;4.90;1.38;;;;;;;11.61;62.23;101903.72;4976406;28;20046;-76
2023/10/05 07:05:08;;;;;;;4.47;1.33;;;;;;;11.64;61.98;101906.25;4968615;28;20038;-74
2023/10/05 07:07:35;;;;;;;7.72;1.10;;;;;;;11.61;62.38;101901.94;4970285;28;20497;-74
2023/10/05 07:10:03;;;;;;;10.93;1.63;;;;;;;11.56;62.95;101908.22;4940881;28;20498;-77
2023/10/05 07:12:31;;;;;;;5.78;1.40;;;;;;;11.63;62.62;101907.16;4985869;28;20061;-76
2023/10/05 07:14:57;;;;;;;6.70;1.90;;;;;;;11.78;62.33;101906.75;4970541;28;20052;-77
2023/10/05 07:17:26;;;;;;;7.10;1.80;;;;;;;11.88;61.54;101913.44;4971126;28;20187;-75
2023/10/05 07:19:53;;;;;;;8.05;1.63;;;;;;;11.75;62.26;101913.81;4957445;28;20061;-77
2023/10/05 07:22:20;;;;;;;5.45;1.27;;;;;;;11.71;62.24;101926.13;4972307;28;20423;-76
2023/10/05 07:24:46;;;;;;;16.17;1.50;;;;;;;12.11;61.41;101929.38;4969505;28;20801;-75
2023/10/05 07:27:11;;;;;;;11.27;1.42;;;;;;;12.23;61.03;101935.13;4971612;28;20030;-76
2023/10/05 07:29:37;;;;;;;8.55;1.35;;;;;;;12.21;60.90;101942.16;4975684;28;20046;-77
2023/10/05 07:32:05;;;;;;;7.20;1.58;;;;;;;12.07;61.23;101949.59;4961248;28;20026;-76
2023/10/05 07:34:31;;;;;;;8.82;2.05;;;;;;;12.16;61.15;101951.09;4970651;28;20124;-77
2023/10/05 07:36:57;;;;;;;7.55;1.27;;;;;;;12.08;61.28;101946.06;4957304;28;20103;-77
2023/10/05 07:39:23;;;;;;;2.58;0.85;;;;;;;12.13;61.47;101948.53;4973009;28;20039;-78
2023/10/05 07:41:52;;;;;;;4.18;0.77;;;;;;;12.25;61.30;101953.44;4974450;28;20039;-77
2023/10/05 07:44:17;;;;;;;6.82;0.77;;;;;;;12.30;61.15;101967.25;4955535;28;20077;-79
2023/10/05 07:46:46;;;;;;;2.20;0.75;;;;;;;12.28;61.39;101959.44;4972055;28;20035;-78
2023/10/05 07:49:13;;;;;;;3.97;1.08;;;;;;;12.46;61.27;101958.00;4986232;28;20361;-79
2023/10/05 07:51:39;;;;;;;3.65;0.73;;;;;;;12.51;61.16;101963.09;4972670;28;20041;-79
2023/10/05 07:54:05;;;;;;;8.57;1.52;;;;;;;12.77;60.94;101970.19;4977021;28;20038;-77
2023/10/05 07:56:32;;;;;;;7.20;1.25;;;;;;;12.35;61.75;101974.97;4969409;28;20049;-78
2023/10/05 07:58:58;;;;;;;5.50;1.27;;;;;;;12.58;60.89;101983.03;5001728;28;20529;-78
2023/10/05 08:01:25;;;;;;;6.38;1.85;;;;;;;12.56;61.47;101989.19;4966580;28;20415;-76
2023/10/05 08:03:51;;;;;;;5.45;1.08;;;;;;;12.87;60.78;101986.50;4953704;28;20057;-78
2023/10/05 08:06:17;;;;;;;9.52;1.70;;;;;;;12.93;60.21;101995.94;4986402;28;20027;-78
2023/10/05 08:08:44;;;;;;;7.32;1.65;;;;;;;13.05;60.24;102012.16;4963637;28;20039;-76
2023/10/05 08:11:14;;;;;;;9.10;0.90;;;;;;;13.16;60.36;102013.56;4967608;28;20041;-78
2023/10/05 08:13:40;;;;;;;6.75;1.25;;;;;;;13.30;60.12;102001.72;4980597;28;20122;-76
2023/10/05 08:16:09;;;;;;;6.22;1.13;;;;;;;13.36;59.85;102008.53;4962340;28;20101;-78
2023/10/05 08:18:36;;;;;;;5.00;0.90;;;;;;;13.62;59.86;102014.69;5004195;28;20609;-77
2023/10/05 08:21:02;;;;;;;5.93;1.10;;;;;;;13.51;59.27;102017.66;4983101;28;20123;-76
2023/10/05 08:23:28;;;;;;;3.85;0.95;;;;;;;13.43;59.99;102028.41;4972813;28;20266;-73
2023/10/05 08:25:57;;;;;;;10.60;2.15;;;;;;;13.63;58.95;102026.88;4966507;28;20046;-74
2023/10/05 08:28:24;;;;;;;7.53;1.45;;;;;;;13.59;58.65;102025.31;4991181;28;20034;-75
2023/10/05 08:31:06;;;;;;;11.80;1.55;;;;;;;13.59;58.51;102035.81;4972640;28;20445;-76
2023/10/05 08:33:35;;;;;;;6.95;1.27;;;;;;;13.63;59.00;102038.28;4975832;28;20498;-75
2023/10/05 08:36:11;;;;;;;8.18;2.05;;;;;;;13.56;58.67;102041.97;4966159;28;20577;-75
2023/10/05 08:38:37;;;;;;;13.88;1.25;;;;;;;13.54;58.53;102043.81;5000675;28;20735;-75
2023/10/05 08:41:12;;;;;;;9.40;0.90;;;;;;;13.52;58.86;102050.91;4990456;28;20044;-77
2023/10/05 08:43:46;;;;;;;5.15;1.33;;;;;;;13.69;58.73;102058.22;4967118;28;20038;-75
2023/10/05 08:46:14;;;;;;;13.00;1.45;;;;;;;13.64;58.65;102050.50;4948681;28;20074;-75
2023/10/05 08:48:40;;;;;;;7.65;0.90;;;;;;;13.68;58.93;102056.50;4947052;28;20475;-75
2023/10/05 08:51:13;;;;;;;10.23;1.23;;;;;;;13.79;58.95;102064.88;4968759;28;20070;-76
2023/10/05 08:53:54;;;;;;;8.15;1.92;;;;;;;13.84;58.81;102077.84;4966745;28;20038;-74
2023/10/05 08:56:21;;;;;;;7.60;1.30;;;;;;;13.39;58.58;102084.56;4942068;28;20065;-75
2023/10/05 08:58:48;;;;;;;7.32;0.60;;;;;;;13.39;58.34;102084.56;4926438;28;20440;-77
2023/10/05 09:01:29;;;;;;;8.80;0.93;;;;;;;13.35;58.05;102074.22;4960899;28;20244;-76
2023/10/05 09:04:20;;;;;;;10.90;0.50;;;;;;;13.49;57.95;102085.97;4949772;28;20108;-75
2023/10/05 09:06:58;;;;;;;8.23;0.40;;;;;;;13.39;56.75;102084.56;4962828;28;20109;-74
2023/10/05 09:09:37;;;;;;;8.45;1.00;;;;;;;13.69;56.20;102089.75;4945657;28;20540;-75
2023/10/05 09:12:34;;;;;;;4.82;0.52;;;;;;;13.53;56.32;102094.63;4947990;28;20485;-75
2023/10/05 09:15:27;;;;;;;13.82;0.93;;;;;;;13.65;56.28;102099.50;4960565;28;20126;-76
2023/10/05 09:17:58;;;;;;;6.50;0.50;;;;;;;13.55;56.45;102105.09;4969689;28;20038;-75
2023/10/05 09:20:30;;;;;;;9.32;0.35;;;;;;;13.75;55.30;102100.06;4993893;28;20038;-77
2023/10/05 09:22:56;;;;;;;5.80;0.77;;;;;;;13.73;54.91;102101.88;4952068;28;20118;-75
2023/10/05 09:25:28;;;;;;;8.68;1.20;;;;;;;13.85;55.02;102103.22;4965967;28;20042;-75
2023/10/05 09:27:56;;;;;;;4.90;0.25;;;;;;;14.13;54.65;102101.34;4983428;28;20062;-75
2023/10/05 09:30:22;;;;;;;11.35;0.70;;;;;;;14.24;53.85;102113.25;4965661;28;20057;-75
2023/10/05 09:32:48;;;;;;;9.27;0.85;;;;;;;14.30;53.21;102113.91;4960241;28;20125;-76
2023/10/05 09:35:27;;;;;;;8.25;0.85;;;;;;;14.38;53.16;102120.63;4962362;28;20441;-76
2023/10/05 09:38:00;;;;;;;3.95;1.55;;;;;;;14.33;52.90;102124.28;4960546;28;20166;-75
2023/10/05 09:40:28;;;;;;;8.40;0.63;;;;;;;14.32;52.83;102134.84;4986682;28;20050;-75
2023/10/05 09:43:00;;;;;;;7.82;0.55;;;;;;;14.30;53.33;102134.94;4963078;28;20038;-75
2023/10/05 09:45:30;;;;;;;7.65;0.73;;;;;;;14.24;53.21;102139.56;4995913;28;20451;-75
2023/10/05 09:47:58;;;;;;;4.00;0.73;;;;;;;14.36;53.30;102142.56;4968347;28;20053;-75
2023/10/05 09:50:26;;;;;;;2.85;0.40;;;;;;;14.66;53.59;102152.94;4963292;28;20085;-74
2023/10/05 09:52:52;;;;;;;5.03;1.02;;;;;;;14.52;53.47;102144.69;4966022;28;20045;-74
2023/10/05 09:55:19;;;;;;;6.60;1.05;;;;;;;14.51;53.61;102143.84;4963857;28;20054;-74
2023/10/05 09:57:51;;;;;;;6.78;0.52;;;;;;;14.44;54.08;102152.03;4968379;28;20248;-76
2023/10/05 10:00:47;;;;;;;7.30;0.68;;;;;;;14.65;54.78;102164.38;4968667;28;20564;-75
2023/10/05 10:03:17;;;;;;;7.55;0.77;;;;;;;15.09;54.55;102161.00;4967763;28;20035;-76
2023/10/05 10:05:48;;;;;;;6.38;0.75;;;;;;;15.16;52.90;102163.31;4963377;28;20046;-75
2023/10/05 10:08:20;;;;;;;7.72;0.47;;;;;;;14.87;52.66;102163.59;4966908;28;20566;-75
2023/10/05 10:11:18;;;;;;;5.47;0.80;;;;;;;14.36;53.91;102168.03;4960794;28;20513;-74
2023/10/05 10:13:52;;;;;;;3.85;0.20;;;;;;;15.10;53.52;102173.22;4960230;28;20289;-74
2023/10/05 10:16:22;;;;;;;5.45;0.60;;;;;;;15.34;51.75;102172.28;4996533;28;20026;-76
2023/10/05 10:19:07;;;;;;;5.38;0.77;;;;;;;14.28;54.00;102173.56;4973614;28;20038;-74
2023/10/05 10:21:41;;;;;;;6.07;0.35;;;;;;;14.97;53.89;102170.22;4965359;28;20535;-75
2023/10/05 10:24:11;;;;;;;2.42;0.30;;;;;;;14.98;51.88;102169.31;4968790;28;20061;-75
2023/10/05 10:26:45;;;;;;;2.15;0.40;;;;;;;15.50;51.78;102167.28;4976591;28;20076;-76
2023/10/05 10:29:16;;;;;;;5.82;0.70;;;;;;;15.55;49.66;102160.06;4950729;28;20046;-77
2023/10/05 10:31:48;;;;;;;7.10;1.25;;;;;;;15.77;51.02;102159.16;4975286;28;20093;-76
2023/10/05 10:34:28;;;;;;;6.50;1.02;;;;;;;15.72;48.56;102161.13;4997924;28;20079;-74
2023/10/05 10:36:57;;;;;;;4.85;0.60;;;;;;;15.93;48.61;102168.16;4963931;28;20475;-75
2023/10/05 10:39:31;;;;;;;3.20;0.32;;;;;;;16.20;47.64;102162.66;4952347;28;20073;-73
2023/10/05 10:42:07;;;;;;;6.78;0.30;;;;;;;16.18;47.50;102169.78;4967631;28;20038;-75
2023/10/05 10:44:57;;;;;;;5.03;0.30;;;;;;;16.61;46.56;102162.59;4995839;28;20047;-75
2023/10/05 10:47:26;;;;;;;4.63;0.20;;;;;;;16.91;47.10;102165.66;4968558;28;20033;-75
2023/10/05 10:50:29;;;;;;;4.28;0.32;;;;;;;17.38;44.85;102169.56;4950750;28;20528;-76
2023/10/05 10:52:55;;;;;;;7.45;0.30;;;;;;;18.05;43.15;102171.56;4959891;28;20099;-75
2023/10/05 10:55:30;;;;;;;3.33;1.40;;;;;;;17.52;41.90;102184.81;4968316;28;20078;-75
2023/10/05 10:58:00;;;;;;;3.92;0.38;;;;;;;16.94;43.72;102180.50;4958244;28;20046;-77
2023/10/05 11:03:17;;;;;;;5.05;0.28;;;;;;;15.94;44.54;102179.56;4967151;28;20435;-77
2023/10/05 11:05:54;;;;;;;6.20;0.30;;;;;;;16.34;45.16;102180.50;4951639;28;20053;-75
2023/10/05 11:08:20;;;;;;;5.57;0.47;;;;;;;16.57;43.86;102179.47;4946331;28;20085;-74
2023/10/05 11:11:09;;;;;;;5.15;0.77;;;;;;;17.27;45.23;102187.72;4951855;28;20078;-74
2023/10/05 11:13:43;;;;;;;3.13;0.30;;;;;;;18.10;43.26;102183.69;4948297;28;20585;-75
2023/10/05 11:16:09;;;;;;;3.70;0.32;;;;;;;18.41;42.02;102178.53;4958142;28;20134;-76
2023/10/05 11:18:39;;;;;;;5.50;0.40;;;;;;;18.50;41.62;102176.31;4942866;28;20030;-74
2023/10/05 11:21:18;;;;;;;3.47;0.28;;;;;;;18.57;40.34;102175.09;4963022;28;20270;-73
2023/10/05 11:23:48;;;;;;;3.63;0.30;;;;;;;18.72;40.11;102176.91;4958285;28;20044;-73
2023/10/05 11:26:18;;;;;;;9.70;0.90;;;;;;;18.78;39.68;102173.91;4964940;28;20030;-74
2023/10/05 11:28:52;;;;;;;5.47;1.10;;;;;;;18.95;40.26;102166.88;4962768;28;20049;-74
2023/10/05 11:31:26;;;;;;;5.30;0.60;;;;;;;18.45;40.82;102158.91;4976657;28;20140;-75
2023/10/05 11:34:00;;;;;;;5.68;0.77;;;;;;;17.64;42.22;102182.41;4957638;28;20129;-75
2023/10/05 11:36:33;;;;;;;4.75;0.57;;;;;;;17.81;41.89;102178.09;4964774;28;20569;-74
2023/10/05 11:39:00;;;;;;;3.03;0.38;;;;;;;17.84;42.52;102180.56;4964291;28;20181;-74
2023/10/05 11:41:28;;;;;;;5.00;0.45;;;;;;;17.54;41.07;102181.16;4995634;28;20038;-76
2023/10/05 11:43:58;;;;;;;6.55;0.20;;;;;;;17.82;40.60;102179.78;4949150;28;20046;-75
2023/10/05 11:46:42;;;;;;;4.15;0.65;;;;;;;18.03;41.22;102186.66;4964613;28;20407;-75
2023/10/05 11:49:13;;;;;;;4.65;1.15;;;;;;;18.57;41.49;102183.03;4962163;28;20291;-75
2023/10/05 11:51:42;;;;;;;5.68;0.40;;;;;;;17.93;41.63;102188.03;4972223;28;20405;-75
2023/10/05 11:54:12;;;;;;;8.52;0.57;;;;;;;17.64;40.96;102185.06;4960968;28;20058;-75